sensor_id;sensor_type;location;lat;lon;timestamp;temperature;humidity
10336;DHT22;5213;53.548;9.930;2023-09-07T00:01:45;18.90;1.00
10336;DHT22;5213;53.548;9.930;2023-09-07T00:04:11;18.80;1.00
10336;DHT22;5213;53.548;9.930;2023-09-07T00:06:39;18.70;6.40
10336;DHT22;5213;53.548;9.930;2023-09-07T00:09:05;18.70;30.50
10336;DHT22;5213;53.548;9.930;2023-09-07T00:11:31;18.60;73.40
10336;DHT22;5213;53.548;9.930;2023-09-07T00:13:56;18.70;99.90
10336;DHT22;5213;53.548;9.930;2023-09-07T00:16:24;18.60;99.90
10336;DHT22;5213;53.548;9.930;2023-09-07T00:18:50;18.50;99.90
10336;DHT22;5213;53.548;9.930;2023-09-07T00:21:16;18.50;99.90
10336;DHT22;5213;53.548;9.930;2023-09-07T00:23:41;18.50;99.90
10336;DHT22;5213;53.548;9.930;2023-09-07T00:26:07;18.40;99.90
10336;DHT22;5213;53.548;9.930;2023-09-07T00:28:33;18.40;99.90
10336;DHT22;5213;53.548;9.930;2023-09-07T00:30:58;18.40;99.90
10336;DHT22;5213;53.548;9.930;2023-09-07T00:33:24;18.30;99.90
10336;DHT22;5213;53.548;9.930;2023-09-07T00:35:50;18.30;99.90
10336;DHT22;5213;53.548;9.930;2023-09-07T00:38:15;18.40;1.00
10336;DHT22;5213;53.548;9.930;2023-09-07T00:40:44;18.30;1.00
10336;DHT22;5213;53.548;9.930;2023-09-07T00:43:13;19.40;1.00
10336;DHT22;5213;53.548;9.930;2023-09-07T00:45:39;19.20;1.00
10336;DHT22;5213;53.548;9.930;2023-09-07T00:48:05;18.60;1.00
10336;DHT22;5213;53.548;9.930;2023-09-07T00:50:31;18.20;1.00
10336;DHT22;5213;53.548;9.930;2023-09-07T00:52:58;18.20;1.00
10336;DHT22;5213;53.548;9.930;2023-09-07T00:55:25;18.20;1.00
10336;DHT22;5213;53.548;9.930;2023-09-07T00:57:51;18.20;1.00
10336;DHT22;5213;53.548;9.930;2023-09-07T01:00:16;18.10;1.00
10336;DHT22;5213;53.548;9.930;2023-09-07T01:02:42;18.20;1.00
10336;DHT22;5213;53.548;9.930;2023-09-07T01:05:10;18.20;1.00
10336;DHT22;5213;53.548;9.930;2023-09-07T01:08:04;18.20;1.00
10336;DHT22;5213;53.548;9.930;2023-09-07T01:10:33;18.30;99.90
10336;DHT22;5213;53.548;9.930;2023-09-07T01:12:58;18.50;99.90
10336;DHT22;5213;53.548;9.930;2023-09-07T01:15:24;18.30;99.90
10336;DHT22;5213;53.548;9.930;2023-09-07T01:17:50;18.20;99.90
10336;DHT22;5213;53.548;9.930;2023-09-07T01:20:16;18.20;99.90
10336;DHT22;5213;53.548;9.930;2023-09-07T01:22:43;18.10;99.90
10336;DHT22;5213;53.548;9.930;2023-09-07T01:25:09;18.10;99.90
10336;DHT22;5213;53.548;9.930;2023-09-07T01:27:35;18.00;99.90
10336;DHT22;5213;53.548;9.930;2023-09-07T01:30:01;18.10;99.90
10336;DHT22;5213;53.548;9.930;2023-09-07T01:32:28;18.00;99.90
10336;DHT22;5213;53.548;9.930;2023-09-07T01:34:57;18.00;99.90
10336;DHT22;5213;53.548;9.930;2023-09-07T01:37:23;17.80;99.90
10336;DHT22;5213;53.548;9.930;2023-09-07T01:39:49;17.80;99.90
10336;DHT22;5213;53.548;9.930;2023-09-07T01:42:15;17.80;99.90
10336;DHT22;5213;53.548;9.930;2023-09-07T01:44:41;17.90;1.00
10336;DHT22;5213;53.548;9.930;2023-09-07T01:47:08;17.90;1.00
10336;DHT22;5213;53.548;9.930;2023-09-07T01:49:34;17.70;1.00
10336;DHT22;5213;53.548;9.930;2023-09-07T01:51:59;17.80;1.00
10336;DHT22;5213;53.548;9.930;2023-09-07T01:54:25;17.70;1.00
10336;DHT22;5213;53.548;9.930;2023-09-07T01:56:51;17.70;1.00
10336;DHT22;5213;53.548;9.930;2023-09-07T01:59:16;17.70;1.00
10336;DHT22;5213;53.548;9.930;2023-09-07T02:01:42;17.60;1.00
10336;DHT22;5213;53.548;9.930;2023-09-07T02:04:08;17.60;1.00
10336;DHT22;5213;53.548;9.930;2023-09-07T02:06:33;17.60;1.00
10336;DHT22;5213;53.548;9.930;2023-09-07T02:08:59;17.60;1.00
10336;DHT22;5213;53.548;9.930;2023-09-07T02:11:24;17.80;1.00
10336;DHT22;5213;53.548;9.930;2023-09-07T02:13:50;17.50;1.00
10336;DHT22;5213;53.548;9.930;2023-09-07T02:16:16;17.60;1.00
10336;DHT22;5213;53.548;9.930;2023-09-07T02:18:43;17.50;1.00
10336;DHT22;5213;53.548;9.930;2023-09-07T02:21:11;17.50;1.00
10336;DHT22;5213;53.548;9.930;2023-09-07T02:23:37;17.50;1.00
10336;DHT22;5213;53.548;9.930;2023-09-07T02:26:03;17.50;1.00
10336;DHT22;5213;53.548;9.930;2023-09-07T02:28:29;17.60;1.00
10336;DHT22;5213;53.548;9.930;2023-09-07T02:31:02;17.40;1.00
10336;DHT22;5213;53.548;9.930;2023-09-07T02:33:28;17.50;1.00
10336;DHT22;5213;53.548;9.930;2023-09-07T02:35:53;17.30;1.00
10336;DHT22;5213;53.548;9.930;2023-09-07T02:38:19;17.40;1.00
10336;DHT22;5213;53.548;9.930;2023-09-07T02:40:46;17.40;1.00
10336;DHT22;5213;53.548;9.930;2023-09-07T02:43:12;17.30;1.00
10336;DHT22;5213;53.548;9.930;2023-09-07T02:45:38;17.30;1.00
10336;DHT22;5213;53.548;9.930;2023-09-07T02:48:04;17.30;1.00
10336;DHT22;5213;53.548;9.930;2023-09-07T02:50:32;17.30;1.00
10336;DHT22;5213;53.548;9.930;2023-09-07T02:52:58;17.50;1.00
10336;DHT22;5213;53.548;9.930;2023-09-07T02:55:26;17.30;1.00
10336;DHT22;5213;53.548;9.930;2023-09-07T02:57:51;17.50;1.00
10336;DHT22;5213;53.548;9.930;2023-09-07T03:00:17;17.20;1.00
10336;DHT22;5213;53.548;9.930;2023-09-07T03:02:43;17.20;1.00
10336;DHT22;5213;53.548;9.930;2023-09-07T03:05:09;17.40;1.00
10336;DHT22;5213;53.548;9.930;2023-09-07T03:07:35;17.20;1.00
10336;DHT22;5213;53.548;9.930;2023-09-07T03:10:00;17.30;1.00
10336;DHT22;5213;53.548;9.930;2023-09-07T03:12:27;17.40;1.00
10336;DHT22;5213;53.548;9.930;2023-09-07T03:14:53;17.30;1.00
10336;DHT22;5213;53.548;9.930;2023-09-07T03:17:18;17.20;1.00
10336;DHT22;5213;53.548;9.930;2023-09-07T03:19:46;17.20;1.00
10336;DHT22;5213;53.548;9.930;2023-09-07T03:22:12;17.30;1.00
10336;DHT22;5213;53.548;9.930;2023-09-07T03:24:38;17.40;1.00
10336;DHT22;5213;53.548;9.930;2023-09-07T03:27:04;17.30;1.00
10336;DHT22;5213;53.548;9.930;2023-09-07T03:29:31;17.30;1.00
10336;DHT22;5213;53.548;9.930;2023-09-07T03:32:01;17.30;1.00
10336;DHT22;5213;53.548;9.930;2023-09-07T03:34:27;17.10;1.00
10336;DHT22;5213;53.548;9.930;2023-09-07T03:36:52;17.10;1.00
10336;DHT22;5213;53.548;9.930;2023-09-07T03:39:18;17.20;1.00
10336;DHT22;5213;53.548;9.930;2023-09-07T03:41:49;17.00;1.00
10336;DHT22;5213;53.548;9.930;2023-09-07T03:44:15;17.10;1.00
10336;DHT22;5213;53.548;9.930;2023-09-07T03:46:51;17.20;1.00
10336;DHT22;5213;53.548;9.930;2023-09-07T03:49:17;17.30;1.00
10336;DHT22;5213;53.548;9.930;2023-09-07T03:51:42;17.20;1.00
10336;DHT22;5213;53.548;9.930;2023-09-07T03:54:08;17.30;1.00
10336;DHT22;5213;53.548;9.930;2023-09-07T03:56:33;17.20;1.00
10336;DHT22;5213;53.548;9.930;2023-09-07T03:58:59;17.10;1.00
10336;DHT22;5213;53.548;9.930;2023-09-07T04:01:24;17.10;1.00
10336;DHT22;5213;53.548;9.930;2023-09-07T04:03:50;17.10;1.00
10336;DHT22;5213;53.548;9.930;2023-09-07T04:06:16;17.00;1.00
10336;DHT22;5213;53.548;9.930;2023-09-07T04:08:41;17.00;1.00
10336;DHT22;5213;53.548;9.930;2023-09-07T04:11:07;17.00;1.00
10336;DHT22;5213;53.548;9.930;2023-09-07T04:13:33;17.10;1.00
10336;DHT22;5213;53.548;9.930;2023-09-07T04:15:58;16.90;1.00
10336;DHT22;5213;53.548;9.930;2023-09-07T04:18:24;16.90;1.00
10336;DHT22;5213;53.548;9.930;2023-09-07T04:20:50;16.80;1.00
10336;DHT22;5213;53.548;9.930;2023-09-07T04:23:15;16.90;1.00
10336;DHT22;5213;53.548;9.930;2023-09-07T04:25:41;16.90;1.00
10336;DHT22;5213;53.548;9.930;2023-09-07T04:28:07;16.90;1.00
10336;DHT22;5213;53.548;9.930;2023-09-07T04:30:37;16.60;1.00
10336;DHT22;5213;53.548;9.930;2023-09-07T04:33:04;16.90;1.00
10336;DHT22;5213;53.548;9.930;2023-09-07T04:35:30;16.80;1.00
10336;DHT22;5213;53.548;9.930;2023-09-07T04:37:56;16.90;1.00
10336;DHT22;5213;53.548;9.930;2023-09-07T04:40:22;16.90;1.00
10336;DHT22;5213;53.548;9.930;2023-09-07T04:42:48;16.80;1.00
10336;DHT22;5213;53.548;9.930;2023-09-07T04:45:13;16.70;1.00
10336;DHT22;5213;53.548;9.930;2023-09-07T04:47:39;16.70;1.00
10336;DHT22;5213;53.548;9.930;2023-09-07T04:50:05;16.70;1.00
10336;DHT22;5213;53.548;9.930;2023-09-07T04:52:31;16.70;1.00
10336;DHT22;5213;53.548;9.930;2023-09-07T04:54:57;16.90;1.00
10336;DHT22;5213;53.548;9.930;2023-09-07T04:57:23;16.80;1.00
10336;DHT22;5213;53.548;9.930;2023-09-07T04:59:48;16.80;1.00
10336;DHT22;5213;53.548;9.930;2023-09-07T05:02:14;16.90;1.00
10336;DHT22;5213;53.548;9.930;2023-09-07T05:04:39;16.80;1.00
10336;DHT22;5213;53.548;9.930;2023-09-07T05:07:05;17.00;1.00
10336;DHT22;5213;53.548;9.930;2023-09-07T05:09:31;17.00;1.00
10336;DHT22;5213;53.548;9.930;2023-09-07T05:11:57;17.30;1.00
10336;DHT22;5213;53.548;9.930;2023-09-07T05:14:25;17.30;1.00
10336;DHT22;5213;53.548;9.930;2023-09-07T05:16:51;17.20;1.00
10336;DHT22;5213;53.548;9.930;2023-09-07T05:19:18;17.20;1.00
10336;DHT22;5213;53.548;9.930;2023-09-07T05:21:43;17.30;1.00
10336;DHT22;5213;53.548;9.930;2023-09-07T05:24:09;17.30;1.00
10336;DHT22;5213;53.548;9.930;2023-09-07T05:26:34;17.40;1.00
10336;DHT22;5213;53.548;9.930;2023-09-07T05:29:00;17.50;99.90
10336;DHT22;5213;53.548;9.930;2023-09-07T05:31:25;17.50;99.90
10336;DHT22;5213;53.548;9.930;2023-09-07T05:33:52;17.70;99.90
10336;DHT22;5213;53.548;9.930;2023-09-07T05:36:18;17.80;99.90
10336;DHT22;5213;53.548;9.930;2023-09-07T05:38:43;17.90;99.90
10336;DHT22;5213;53.548;9.930;2023-09-07T05:41:09;18.00;99.90
10336;DHT22;5213;53.548;9.930;2023-09-07T05:43:34;17.90;99.90
10336;DHT22;5213;53.548;9.930;2023-09-07T05:46:00;18.00;99.90
10336;DHT22;5213;53.548;9.930;2023-09-07T05:48:26;18.10;99.90
10336;DHT22;5213;53.548;9.930;2023-09-07T05:50:51;18.10;64.90
10336;DHT22;5213;53.548;9.930;2023-09-07T05:53:18;18.20;24.70
10336;DHT22;5213;53.548;9.930;2023-09-07T05:55:45;18.30;1.00
10336;DHT22;5213;53.548;9.930;2023-09-07T05:58:12;18.50;1.00
10336;DHT22;5213;53.548;9.930;2023-09-07T06:00:37;18.60;1.00
10336;DHT22;5213;53.548;9.930;2023-09-07T06:03:08;18.60;1.00
10336;DHT22;5213;53.548;9.930;2023-09-07T06:05:35;18.60;1.00
10336;DHT22;5213;53.548;9.930;2023-09-07T06:08:01;18.70;1.00
10336;DHT22;5213;53.548;9.930;2023-09-07T06:10:28;18.70;1.00
10336;DHT22;5213;53.548;9.930;2023-09-07T06:12:54;18.70;1.00
10336;DHT22;5213;53.548;9.930;2023-09-07T06:15:20;19.00;1.00
10336;DHT22;5213;53.548;9.930;2023-09-07T06:17:46;18.90;1.00
10336;DHT22;5213;53.548;9.930;2023-09-07T06:20:11;19.00;1.00
10336;DHT22;5213;53.548;9.930;2023-09-07T06:22:37;19.00;1.00
10336;DHT22;5213;53.548;9.930;2023-09-07T06:25:02;19.00;1.00
10336;DHT22;5213;53.548;9.930;2023-09-07T06:27:28;19.10;1.00
10336;DHT22;5213;53.548;9.930;2023-09-07T06:29:54;19.20;1.00
10336;DHT22;5213;53.548;9.930;2023-09-07T06:32:19;19.40;1.00
10336;DHT22;5213;53.548;9.930;2023-09-07T06:34:45;19.50;1.00
10336;DHT22;5213;53.548;9.930;2023-09-07T06:37:11;19.70;1.00
10336;DHT22;5213;53.548;9.930;2023-09-07T06:39:37;19.80;99.90
10336;DHT22;5213;53.548;9.930;2023-09-07T06:42:02;19.80;99.90
10336;DHT22;5213;53.548;9.930;2023-09-07T06:44:29;19.90;99.90
10336;DHT22;5213;53.548;9.930;2023-09-07T06:46:54;20.20;99.90
10336;DHT22;5213;53.548;9.930;2023-09-07T06:49:21;20.10;99.90
10336;DHT22;5213;53.548;9.930;2023-09-07T06:51:46;20.30;99.90
10336;DHT22;5213;53.548;9.930;2023-09-07T06:54:12;20.40;99.90
10336;DHT22;5213;53.548;9.930;2023-09-07T06:56:38;20.50;99.90
10336;DHT22;5213;53.548;9.930;2023-09-07T06:59:04;20.60;99.90
10336;DHT22;5213;53.548;9.930;2023-09-07T07:01:29;20.80;99.90
10336;DHT22;5213;53.548;9.930;2023-09-07T07:03:55;20.90;99.90
10336;DHT22;5213;53.548;9.930;2023-09-07T07:06:22;21.00;99.90
10336;DHT22;5213;53.548;9.930;2023-09-07T07:08:48;21.00;90.90
10336;DHT22;5213;53.548;9.930;2023-09-07T07:11:13;21.10;70.20
10336;DHT22;5213;53.548;9.930;2023-09-07T07:16:42;21.20;11.00
10336;DHT22;5213;53.548;9.930;2023-09-07T07:19:08;21.30;1.00
10336;DHT22;5213;53.548;9.930;2023-09-07T07:21:33;21.40;1.00
10336;DHT22;5213;53.548;9.930;2023-09-07T07:23:59;21.50;1.00
10336;DHT22;5213;53.548;9.930;2023-09-07T07:26:25;21.50;1.00
10336;DHT22;5213;53.548;9.930;2023-09-07T07:28:50;21.50;1.00
10336;DHT22;5213;53.548;9.930;2023-09-07T07:31:16;21.50;1.00
10336;DHT22;5213;53.548;9.930;2023-09-07T07:33:41;21.60;1.00
10336;DHT22;5213;53.548;9.930;2023-09-07T07:36:07;21.60;1.00
10336;DHT22;5213;53.548;9.930;2023-09-07T07:38:32;21.60;1.00
10336;DHT22;5213;53.548;9.930;2023-09-07T07:40:58;21.60;1.00
10336;DHT22;5213;53.548;9.930;2023-09-07T07:43:24;21.70;1.00
10336;DHT22;5213;53.548;9.930;2023-09-07T07:45:51;21.90;1.00
10336;DHT22;5213;53.548;9.930;2023-09-07T07:48:17;21.90;1.00
10336;DHT22;5213;53.548;9.930;2023-09-07T07:50:42;22.00;1.00
10336;DHT22;5213;53.548;9.930;2023-09-07T07:53:09;22.00;1.00
10336;DHT22;5213;53.548;9.930;2023-09-07T07:55:38;22.10;1.00
10336;DHT22;5213;53.548;9.930;2023-09-07T07:58:08;22.20;1.00
10336;DHT22;5213;53.548;9.930;2023-09-07T08:00:34;22.30;1.00
10336;DHT22;5213;53.548;9.930;2023-09-07T08:03:01;22.50;1.00
10336;DHT22;5213;53.548;9.930;2023-09-07T08:05:34;22.50;1.00
10336;DHT22;5213;53.548;9.930;2023-09-07T08:08:00;22.60;1.00
10336;DHT22;5213;53.548;9.930;2023-09-07T08:10:26;22.70;1.00
10336;DHT22;5213;53.548;9.930;2023-09-07T08:12:55;22.70;1.00
10336;DHT22;5213;53.548;9.930;2023-09-07T08:15:21;22.80;1.00
10336;DHT22;5213;53.548;9.930;2023-09-07T08:17:48;22.80;1.00
10336;DHT22;5213;53.548;9.930;2023-09-07T08:20:32;22.90;1.00
10336;DHT22;5213;53.548;9.930;2023-09-07T08:22:58;22.90;1.00
10336;DHT22;5213;53.548;9.930;2023-09-07T08:25:23;23.00;1.00
10336;DHT22;5213;53.548;9.930;2023-09-07T08:27:51;23.10;1.00
10336;DHT22;5213;53.548;9.930;2023-09-07T08:30:21;23.20;1.00
10336;DHT22;5213;53.548;9.930;2023-09-07T08:32:50;23.40;1.00
10336;DHT22;5213;53.548;9.930;2023-09-07T08:35:17;23.30;1.00
10336;DHT22;5213;53.548;9.930;2023-09-07T08:37:43;23.30;1.00
10336;DHT22;5213;53.548;9.930;2023-09-07T08:40:09;23.50;1.00
10336;DHT22;5213;53.548;9.930;2023-09-07T08:42:36;23.50;1.00
10336;DHT22;5213;53.548;9.930;2023-09-07T08:45:04;23.70;1.00
10336;DHT22;5213;53.548;9.930;2023-09-07T08:47:36;23.90;1.00
10336;DHT22;5213;53.548;9.930;2023-09-07T08:50:04;24.00;1.00
10336;DHT22;5213;53.548;9.930;2023-09-07T08:52:32;24.10;1.00
10336;DHT22;5213;53.548;9.930;2023-09-07T08:54:57;24.10;1.00
10336;DHT22;5213;53.548;9.930;2023-09-07T08:57:26;24.30;1.00
10336;DHT22;5213;53.548;9.930;2023-09-07T08:59:53;24.20;1.00
10336;DHT22;5213;53.548;9.930;2023-09-07T09:02:18;24.20;1.00
10336;DHT22;5213;53.548;9.930;2023-09-07T09:04:44;24.20;1.00
10336;DHT22;5213;53.548;9.930;2023-09-07T09:07:10;24.30;1.00
10336;DHT22;5213;53.548;9.930;2023-09-07T09:09:35;24.40;1.00
10336;DHT22;5213;53.548;9.930;2023-09-07T09:12:11;24.40;1.00
10336;DHT22;5213;53.548;9.930;2023-09-07T09:14:42;24.40;99.90
10336;DHT22;5213;53.548;9.930;2023-09-07T09:17:14;24.50;99.90
10336;DHT22;5213;53.548;9.930;2023-09-07T09:19:40;24.70;99.90
10336;DHT22;5213;53.548;9.930;2023-09-07T09:22:10;24.70;99.90
10336;DHT22;5213;53.548;9.930;2023-09-07T09:24:36;24.90;99.90
10336;DHT22;5213;53.548;9.930;2023-09-07T09:27:03;24.90;99.90
10336;DHT22;5213;53.548;9.930;2023-09-07T09:29:31;25.00;99.90
10336;DHT22;5213;53.548;9.930;2023-09-07T09:32:02;25.20;99.90
10336;DHT22;5213;53.548;9.930;2023-09-07T09:34:33;25.20;99.90
10336;DHT22;5213;53.548;9.930;2023-09-07T09:36:59;25.30;99.90
10336;DHT22;5213;53.548;9.930;2023-09-07T09:39:25;25.30;99.90
10336;DHT22;5213;53.548;9.930;2023-09-07T09:41:52;25.50;99.90
10336;DHT22;5213;53.548;9.930;2023-09-07T09:44:20;25.50;99.90
10336;DHT22;5213;53.548;9.930;2023-09-07T09:46:47;25.60;99.90
10336;DHT22;5213;53.548;9.930;2023-09-07T09:49:15;25.60;99.90
10336;DHT22;5213;53.548;9.930;2023-09-07T09:51:42;25.60;99.90
10336;DHT22;5213;53.548;9.930;2023-09-07T09:54:09;25.60;99.90
10336;DHT22;5213;53.548;9.930;2023-09-07T09:56:34;25.70;99.90
10336;DHT22;5213;53.548;9.930;2023-09-07T09:59:00;25.70;99.90
10336;DHT22;5213;53.548;9.930;2023-09-07T10:01:26;25.80;99.90
10336;DHT22;5213;53.548;9.930;2023-09-07T10:03:53;25.80;99.90
10336;DHT22;5213;53.548;9.930;2023-09-07T10:06:23;26.00;99.90
10336;DHT22;5213;53.548;9.930;2023-09-07T10:09:08;25.90;99.90
10336;DHT22;5213;53.548;9.930;2023-09-07T10:11:39;26.00;99.90
10336;DHT22;5213;53.548;9.930;2023-09-07T10:14:06;26.00;99.90
10336;DHT22;5213;53.548;9.930;2023-09-07T10:21:41;26.10;99.90
10336;DHT22;5213;53.548;9.930;2023-09-07T10:24:08;26.00;99.90
10336;DHT22;5213;53.548;9.930;2023-09-07T10:26:33;26.00;99.90
10336;DHT22;5213;53.548;9.930;2023-09-07T10:29:00;26.00;99.90
10336;DHT22;5213;53.548;9.930;2023-09-07T10:31:29;26.10;99.90
10336;DHT22;5213;53.548;9.930;2023-09-07T10:33:55;26.10;99.90
10336;DHT22;5213;53.548;9.930;2023-09-07T10:38:48;26.40;99.90
10336;DHT22;5213;53.548;9.930;2023-09-07T10:41:14;26.40;99.90
10336;DHT22;5213;53.548;9.930;2023-09-07T10:43:50;26.40;99.90
10336;DHT22;5213;53.548;9.930;2023-09-07T10:46:21;26.30;99.90
10336;DHT22;5213;53.548;9.930;2023-09-07T10:48:53;26.30;99.90
10336;DHT22;5213;53.548;9.930;2023-09-07T10:51:19;26.40;99.90
10336;DHT22;5213;53.548;9.930;2023-09-07T10:53:45;26.30;99.90
10336;DHT22;5213;53.548;9.930;2023-09-07T10:56:11;26.30;99.90
10336;DHT22;5213;53.548;9.930;2023-09-07T10:58:38;26.60;99.90
10336;DHT22;5213;53.548;9.930;2023-09-07T11:01:10;26.60;99.90
10336;DHT22;5213;53.548;9.930;2023-09-07T11:03:37;26.50;99.90
10336;DHT22;5213;53.548;9.930;2023-09-07T11:06:17;26.70;99.90
10336;DHT22;5213;53.548;9.930;2023-09-07T11:08:45;26.60;99.90
10336;DHT22;5213;53.548;9.930;2023-09-07T11:11:11;26.50;99.90
10336;DHT22;5213;53.548;9.930;2023-09-07T11:13:37;26.70;99.90
10336;DHT22;5213;53.548;9.930;2023-09-07T11:16:06;26.70;99.90
10336;DHT22;5213;53.548;9.930;2023-09-07T11:18:33;26.60;99.90
10336;DHT22;5213;53.548;9.930;2023-09-07T11:21:01;26.90;99.90
10336;DHT22;5213;53.548;9.930;2023-09-07T11:23:30;26.70;99.90
10336;DHT22;5213;53.548;9.930;2023-09-07T11:26:10;26.70;99.90
10336;DHT22;5213;53.548;9.930;2023-09-07T11:28:35;26.70;99.90
10336;DHT22;5213;53.548;9.930;2023-09-07T11:31:01;26.90;99.90
10336;DHT22;5213;53.548;9.930;2023-09-07T11:33:30;26.90;99.90
10336;DHT22;5213;53.548;9.930;2023-09-07T11:35:56;26.80;99.90
10336;DHT22;5213;53.548;9.930;2023-09-07T11:38:22;26.70;99.90
10336;DHT22;5213;53.548;9.930;2023-09-07T11:40:48;26.80;99.90
10336;DHT22;5213;53.548;9.930;2023-09-07T11:43:14;27.10;99.90
10336;DHT22;5213;53.548;9.930;2023-09-07T11:45:43;26.90;99.90
10336;DHT22;5213;53.548;9.930;2023-09-07T11:48:09;26.90;99.90
10336;DHT22;5213;53.548;9.930;2023-09-07T11:50:36;27.10;99.90
10336;DHT22;5213;53.548;9.930;2023-09-07T11:53:01;27.10;99.90
10336;DHT22;5213;53.548;9.930;2023-09-07T11:55:27;27.10;99.90
10336;DHT22;5213;53.548;9.930;2023-09-07T11:57:53;27.00;99.90
10336;DHT22;5213;53.548;9.930;2023-09-07T12:00:19;27.30;99.90
10336;DHT22;5213;53.548;9.930;2023-09-07T12:02:45;27.10;99.90
10336;DHT22;5213;53.548;9.930;2023-09-07T12:05:10;27.20;99.90
10336;DHT22;5213;53.548;9.930;2023-09-07T12:07:40;27.00;99.90
10336;DHT22;5213;53.548;9.930;2023-09-07T12:10:06;27.00;99.90
10336;DHT22;5213;53.548;9.930;2023-09-07T12:12:38;27.00;99.90
10336;DHT22;5213;53.548;9.930;2023-09-07T12:15:04;27.00;99.90
10336;DHT22;5213;53.548;9.930;2023-09-07T12:17:33;27.00;99.90
10336;DHT22;5213;53.548;9.930;2023-09-07T12:19:59;27.10;99.90
10336;DHT22;5213;53.548;9.930;2023-09-07T12:22:26;27.10;99.90
10336;DHT22;5213;53.548;9.930;2023-09-07T12:24:52;27.00;99.90
10336;DHT22;5213;53.548;9.930;2023-09-07T12:27:18;27.10;99.90
10336;DHT22;5213;53.548;9.930;2023-09-07T12:29:44;27.10;99.90
10336;DHT22;5213;53.548;9.930;2023-09-07T12:32:10;27.10;99.90
10336;DHT22;5213;53.548;9.930;2023-09-07T12:34:36;27.10;99.90
10336;DHT22;5213;53.548;9.930;2023-09-07T12:37:02;27.20;99.90
10336;DHT22;5213;53.548;9.930;2023-09-07T12:39:31;27.20;99.90
10336;DHT22;5213;53.548;9.930;2023-09-07T12:41:57;27.10;99.90
10336;DHT22;5213;53.548;9.930;2023-09-07T12:44:23;27.30;99.90
10336;DHT22;5213;53.548;9.930;2023-09-07T12:46:48;27.20;99.90
10336;DHT22;5213;53.548;9.930;2023-09-07T12:49:14;27.10;99.90
10336;DHT22;5213;53.548;9.930;2023-09-07T12:51:42;27.20;99.90
10336;DHT22;5213;53.548;9.930;2023-09-07T12:54:08;27.20;99.90
10336;DHT22;5213;53.548;9.930;2023-09-07T12:56:34;27.30;99.90
10336;DHT22;5213;53.548;9.930;2023-09-07T12:58:59;27.00;99.90
10336;DHT22;5213;53.548;9.930;2023-09-07T13:01:28;27.00;99.90
10336;DHT22;5213;53.548;9.930;2023-09-07T13:03:55;27.00;99.90
10336;DHT22;5213;53.548;9.930;2023-09-07T13:06:20;27.20;99.90
10336;DHT22;5213;53.548;9.930;2023-09-07T13:08:46;27.20;99.90
10336;DHT22;5213;53.548;9.930;2023-09-07T13:11:12;27.20;99.90
10336;DHT22;5213;53.548;9.930;2023-09-07T13:13:37;27.20;99.90
10336;DHT22;5213;53.548;9.930;2023-09-07T13:16:04;27.40;99.90
10336;DHT22;5213;53.548;9.930;2023-09-07T13:18:30;27.40;99.90
10336;DHT22;5213;53.548;9.930;2023-09-07T13:20:56;27.40;99.90
10336;DHT22;5213;53.548;9.930;2023-09-07T13:23:33;27.40;99.90
10336;DHT22;5213;53.548;9.930;2023-09-07T13:25:59;27.50;99.90
10336;DHT22;5213;53.548;9.930;2023-09-07T13:28:26;27.40;99.90
10336;DHT22;5213;53.548;9.930;2023-09-07T13:30:52;27.40;99.90
10336;DHT22;5213;53.548;9.930;2023-09-07T13:33:18;27.30;99.90
10336;DHT22;5213;53.548;9.930;2023-09-07T13:35:43;27.40;99.90
10336;DHT22;5213;53.548;9.930;2023-09-07T13:38:10;27.30;99.90
10336;DHT22;5213;53.548;9.930;2023-09-07T13:40:36;27.20;99.90
10336;DHT22;5213;53.548;9.930;2023-09-07T13:43:01;27.20;99.90
10336;DHT22;5213;53.548;9.930;2023-09-07T13:45:27;27.20;99.90
10336;DHT22;5213;53.548;9.930;2023-09-07T13:47:55;27.20;99.90
10336;DHT22;5213;53.548;9.930;2023-09-07T13:50:20;27.20;99.90
10336;DHT22;5213;53.548;9.930;2023-09-07T13:52:47;27.20;99.90
10336;DHT22;5213;53.548;9.930;2023-09-07T13:55:13;27.30;99.90
10336;DHT22;5213;53.548;9.930;2023-09-07T13:57:38;27.40;99.90
10336;DHT22;5213;53.548;9.930;2023-09-07T14:00:05;27.40;99.90
10336;DHT22;5213;53.548;9.930;2023-09-07T14:02:31;27.40;99.90
10336;DHT22;5213;53.548;9.930;2023-09-07T14:04:58;27.50;99.90
10336;DHT22;5213;53.548;9.930;2023-09-07T14:07:24;27.50;99.90
10336;DHT22;5213;53.548;9.930;2023-09-07T14:09:51;27.50;99.90
10336;DHT22;5213;53.548;9.930;2023-09-07T14:12:17;27.60;99.90
10336;DHT22;5213;53.548;9.930;2023-09-07T14:14:43;27.60;99.90
10336;DHT22;5213;53.548;9.930;2023-09-07T14:17:08;27.70;99.90
10336;DHT22;5213;53.548;9.930;2023-09-07T14:19:34;27.50;99.90
10336;DHT22;5213;53.548;9.930;2023-09-07T14:22:00;27.70;99.90
10336;DHT22;5213;53.548;9.930;2023-09-07T14:24:25;27.50;99.90
10336;DHT22;5213;53.548;9.930;2023-09-07T14:26:51;27.40;99.90
10336;DHT22;5213;53.548;9.930;2023-09-07T14:29:17;27.50;99.90
10336;DHT22;5213;53.548;9.930;2023-09-07T14:31:43;27.50;99.90
10336;DHT22;5213;53.548;9.930;2023-09-07T14:34:10;27.60;99.90
10336;DHT22;5213;53.548;9.930;2023-09-07T14:36:36;27.60;99.90
10336;DHT22;5213;53.548;9.930;2023-09-07T14:39:02;27.50;99.90
10336;DHT22;5213;53.548;9.930;2023-09-07T14:41:28;27.60;99.90
10336;DHT22;5213;53.548;9.930;2023-09-07T14:43:56;27.60;99.90
10336;DHT22;5213;53.548;9.930;2023-09-07T14:46:21;27.50;99.90
10336;DHT22;5213;53.548;9.930;2023-09-07T14:48:48;27.50;99.90
10336;DHT22;5213;53.548;9.930;2023-09-07T14:51:15;27.50;99.90
10336;DHT22;5213;53.548;9.930;2023-09-07T14:53:40;27.50;99.90
10336;DHT22;5213;53.548;9.930;2023-09-07T14:56:06;27.50;99.90
10336;DHT22;5213;53.548;9.930;2023-09-07T14:58:32;27.50;99.90
10336;DHT22;5213;53.548;9.930;2023-09-07T15:00:58;27.50;99.90
10336;DHT22;5213;53.548;9.930;2023-09-07T15:03:24;27.40;99.90
10336;DHT22;5213;53.548;9.930;2023-09-07T15:05:50;27.40;99.90
10336;DHT22;5213;53.548;9.930;2023-09-07T15:08:15;27.40;99.90
10336;DHT22;5213;53.548;9.930;2023-09-07T15:10:41;27.40;99.90
10336;DHT22;5213;53.548;9.930;2023-09-07T15:13:07;27.50;99.90
10336;DHT22;5213;53.548;9.930;2023-09-07T15:15:34;27.50;99.90
10336;DHT22;5213;53.548;9.930;2023-09-07T15:18:03;27.40;99.90
10336;DHT22;5213;53.548;9.930;2023-09-07T15:20:29;27.40;99.90
10336;DHT22;5213;53.548;9.930;2023-09-07T15:22:56;27.30;99.90
10336;DHT22;5213;53.548;9.930;2023-09-07T15:25:21;27.30;99.90
10336;DHT22;5213;53.548;9.930;2023-09-07T15:27:47;27.30;99.90
10336;DHT22;5213;53.548;9.930;2023-09-07T15:30:13;27.30;99.90
10336;DHT22;5213;53.548;9.930;2023-09-07T15:32:39;27.20;99.90
10336;DHT22;5213;53.548;9.930;2023-09-07T15:35:07;27.20;99.90
10336;DHT22;5213;53.548;9.930;2023-09-07T15:37:33;27.20;99.90
10336;DHT22;5213;53.548;9.930;2023-09-07T15:39:58;27.20;99.90
10336;DHT22;5213;53.548;9.930;2023-09-07T15:42:24;27.10;99.90
10336;DHT22;5213;53.548;9.930;2023-09-07T15:44:51;27.30;99.90
10336;DHT22;5213;53.548;9.930;2023-09-07T15:47:17;27.10;99.90
10336;DHT22;5213;53.548;9.930;2023-09-07T15:49:43;27.00;99.90
10336;DHT22;5213;53.548;9.930;2023-09-07T15:52:09;27.10;99.90
10336;DHT22;5213;53.548;9.930;2023-09-07T15:54:35;26.90;99.90
10336;DHT22;5213;53.548;9.930;2023-09-07T15:57:02;26.90;99.90
10336;DHT22;5213;53.548;9.930;2023-09-07T15:59:29;26.80;99.90